Aberdeen / Amory, MS

5:17 PM CDT on September 21, 2019 (GMT -0500)
Aberdeen / Amory

Weather History for KM40 - August, 2019

Change the Weather History Date:

Tuesday, August 20, 2019

  Actual Average (KCBM) Record (KCBM)
Temperature  
Mean Temperature 80 °F -  
Max Temperature 93 °F 88 °F 98 °F (2006)
Min Temperature 68 °F 68 °F 64 °F (2001)
Cooling Degree Days 16    
Growing Degree Days 30 (Base 50)    
Moisture  
Dew Point 62 °F    
Average Humidity 54    
Maximum Humidity 57    
Minimum Humidity 52    
Precipitation  
Precipitation 0.00 in - - ()
Sea Level Pressure  
Sea Level Pressure 30.07 in    
Wind  
Wind Speed 2 mph ()    
Max Wind Speed 13 mph    
Max Gust Speed 18 mph    
Visibility 7.6 miles    
Events      
Averages and records for this station are not official NWS values.
T = Trace of Precipitation, MM = Missing Value Source: Averaged Metar Reports

Daily Weather History Graph

Daily Weather History Graph

Search for Another Location

Airport or City:

Astronomy

Aug. 20, 2019 Rise Set
Actual Time 6:19 AM CDT 7:35 PM CDT
Civil Twilight 5:53 AM CDT 8:01 PM CDT
Nautical Twilight 5:21 AM CDT 8:32 PM CDT
Astronomical Twilight 4:49 AM CDT 9:04 PM CDT
Moon 10:36 PM CDT (8/20) 10:44 AM CDT (8/20)
Length of Visible Light 14h 08m
Length of Day
13h 15m
Waning Gibbous, 77% of the Moon is Illuminated
Aug 20
Waning Gibbous
Aug 23
Last Quarter
Aug 30
New
Sep 5
First Quarter
Sep 13
Full

Hourly Weather History & Observations

Time (CDT) Temp. Heat Index Dew Point Humidity Pressure Visibility Wind Dir Wind Speed Gust Speed Precip Events Conditions
12:35 AM 71.6 °F - 53.6 °F 53% 30.06 in 1.5 mi Calm Calm - N/A   Haze
12:55 AM 71.6 °F - 53.6 °F 53% 30.06 in 1.0 mi Calm Calm - N/A   Haze
1:15 AM 71.6 °F - 53.6 °F 53% 30.05 in 1.0 mi Calm Calm - N/A   Haze
1:35 AM 69.8 °F - 53.6 °F 56% 30.05 in 2.5 mi Calm Calm - N/A   Haze
1:55 AM 69.8 °F - 53.6 °F 56% 30.05 in 1.8 mi Calm Calm - N/A   Haze
2:15 AM 69.8 °F - 53.6 °F 56% 30.06 in 2.5 mi North 3.5 mph - N/A   Haze
2:35 AM 69.8 °F - 53.6 °F 56% 30.05 in 4.0 mi Calm Calm - N/A   Haze
2:55 AM 69.8 °F - 53.6 °F 56% 30.05 in 2.0 mi Calm Calm - N/A   Haze
3:15 AM 69.8 °F - 53.6 °F 56% 30.05 in 1.5 mi Calm Calm - N/A   Haze
3:35 AM 69.8 °F - 51.8 °F 53% 30.06 in 1.0 mi Calm Calm - N/A   Haze
3:55 AM 69.8 °F - 51.8 °F 53% 30.06 in 0.2 mi Calm Calm - N/A   Haze
4:15 AM 68.0 °F - 51.8 °F 56% 30.06 in 0.8 mi Calm Calm - N/A   Haze
4:35 AM 69.8 °F - 51.8 °F 53% 30.07 in 0.5 mi Calm Calm - N/A   Haze
4:55 AM 69.8 °F - 51.8 °F 53% 30.08 in 4.0 mi SE 3.5 mph - N/A   Haze
5:15 AM 69.8 °F - 51.8 °F 53% 30.08 in 5.0 mi Calm Calm - N/A   Haze
5:35 AM 69.8 °F - 51.8 °F 53% 30.08 in 5.0 mi South 3.5 mph - N/A   Haze
5:55 AM 69.8 °F - 51.8 °F 53% 30.09 in 4.0 mi Calm Calm - N/A   Haze
6:15 AM 69.8 °F - 51.8 °F 53% 30.09 in 5.0 mi Calm Calm - N/A   Haze
6:35 AM 69.8 °F - 51.8 °F 53% 30.10 in 4.0 mi Calm Calm - N/A   Haze
6:55 AM 69.8 °F - 53.6 °F 56% 30.11 in 3.0 mi South 3.5 mph - N/A   Haze
7:15 AM 71.6 °F - 53.6 °F 53% 30.11 in 4.0 mi Calm Calm - N/A   Haze
7:55 AM 73.4 °F - 55.4 °F 53% 30.10 in 7.0 mi Calm Calm - N/A   Clear
8:15 AM 75.2 °F - 57.2 °F 53% 30.10 in 9.0 mi Calm Calm - N/A   Clear
8:55 AM 77.0 °F - 59.0 °F 54% 30.09 in 10.0 mi Calm Calm - N/A   Clear
9:35 AM 78.8 °F - 62.6 °F 57% 30.10 in 10.0 mi Calm Calm - N/A   Clear
9:55 AM 80.6 °F 81.8 °F 62.6 °F 54% 30.11 in 10.0 mi Calm Calm - N/A   Clear
10:15 AM 82.4 °F 83.9 °F 64.4 °F 54% 30.12 in 10.0 mi Calm Calm - N/A   Clear
10:35 AM 84.2 °F 86.6 °F 66.2 °F 55% 30.12 in 10.0 mi Calm Calm - N/A   Clear
10:55 AM 84.2 °F 86.6 °F 66.2 °F 55% 30.13 in 10.0 mi Calm Calm - N/A   Clear
11:15 AM 86.0 °F 89.4 °F 68.0 °F 55% 30.13 in 10.0 mi Calm Calm - N/A   Clear
11:35 AM 87.8 °F 92.6 °F 69.8 °F 55% 30.12 in 10.0 mi Variable 5.8 mph - N/A   Clear
11:55 AM 87.8 °F 92.6 °F 69.8 °F 55% 30.12 in 10.0 mi Calm Calm - N/A   Clear
12:15 PM 89.6 °F 94.7 °F 69.8 °F 52% 30.11 in 10.0 mi SE 4.6 mph - N/A   Clear
12:35 PM 89.6 °F 96.2 °F 71.6 °F 55% 30.11 in 10.0 mi Calm Calm - N/A   Clear
12:55 PM 89.6 °F 96.2 °F 71.6 °F 55% 30.10 in 10.0 mi Calm Calm - N/A   Clear
1:15 PM 91.4 °F 100.1 °F 73.4 °F 55% 30.08 in 10.0 mi WSW 4.6 mph - N/A   Clear
1:35 PM 91.4 °F 100.1 °F 73.4 °F 55% 30.07 in 10.0 mi Variable 4.6 mph - N/A   Clear
1:55 PM 89.6 °F 96.2 °F 71.6 °F 55% 30.07 in 10.0 mi West 5.8 mph - N/A   Clear
2:15 PM 91.4 °F 98.4 °F 71.6 °F 52% 30.07 in 10.0 mi NW 6.9 mph - N/A   Partly Cloudy
2:35 PM 91.4 °F 100.1 °F 73.4 °F 55% 30.06 in 10.0 mi SW 4.6 mph - N/A   Scattered Clouds
2:55 PM 91.4 °F 100.1 °F 73.4 °F 55% 30.05 in 10.0 mi Calm Calm - N/A   Scattered Clouds
3:15 PM 91.4 °F 100.1 °F 73.4 °F 55% 30.04 in 10.0 mi Calm Calm - N/A   Clear
3:35 PM 93.2 °F 105.0 °F 75.2 °F 56% 30.03 in 10.0 mi South 5.8 mph - N/A   Partly Cloudy
3:55 PM 93.2 °F 102.4 °F 73.4 °F 52% 30.02 in 10.0 mi SW 5.8 mph - N/A   Partly Cloudy
4:15 PM 93.2 °F 102.4 °F 73.4 °F 52% 30.01 in 10.0 mi Calm Calm - N/A   Clear
4:35 PM 91.4 °F 100.1 °F 73.4 °F 55% 30.01 in 10.0 mi SW 6.9 mph - N/A   Clear
4:55 PM 91.4 °F 100.1 °F 73.4 °F 55% 30.01 in 10.0 mi WSW 5.8 mph - N/A   Clear
5:15 PM 91.4 °F 100.1 °F 73.4 °F 55% 30.01 in 10.0 mi WSW 4.6 mph - N/A   Clear
5:35 PM 91.4 °F 100.1 °F 73.4 °F 55% 30.01 in 10.0 mi WSW 4.6 mph - N/A   Clear
5:55 PM 89.6 °F 96.2 °F 71.6 °F 55% 30.01 in 10.0 mi West 4.6 mph - N/A   Clear
6:15 PM 89.6 °F 96.2 °F 71.6 °F 55% 30.01 in 10.0 mi West 3.5 mph - N/A   Clear
6:35 PM 89.6 °F 96.2 °F 71.6 °F 55% 30.03 in 10.0 mi Calm Calm - N/A   Clear
6:55 PM 87.8 °F 92.6 °F 69.8 °F 55% 30.04 in 10.0 mi Calm Calm - N/A   Clear
7:15 PM 86.0 °F 89.4 °F 68.0 °F 55% 30.04 in 10.0 mi SW 4.6 mph - N/A   Clear
7:35 PM 82.4 °F 83.9 °F 64.4 °F 54% 30.04 in 10.0 mi Calm Calm - N/A   Clear
7:55 PM 80.6 °F 81.8 °F 62.6 °F 54% 30.04 in 10.0 mi Calm Calm - N/A   Clear
8:15 PM 80.6 °F 81.8 °F 62.6 °F 54% 30.05 in 9.0 mi Calm Calm - N/A   Clear
8:35 PM 78.8 °F - 60.8 °F 54% 30.06 in 10.0 mi Calm Calm - N/A   Partly Cloudy
9:15 PM 78.8 °F - 60.8 °F 54% 30.09 in 10.0 mi SE 12.7 mph - N/A   Mostly Cloudy
9:35 PM 77.0 °F - 59.0 °F 54% 30.11 in 10.0 mi SE 10.4 mph 18.4 mph N/A   Mostly Cloudy
9:55 PM 75.2 °F - 59.0 °F 57% 30.11 in 10.0 mi SE 4.6 mph - N/A   Partly Cloudy
10:15 PM 75.2 °F - 57.2 °F 53% 30.12 in 10.0 mi SE 4.6 mph - N/A   Clear
10:35 PM 75.2 °F - 57.2 °F 53% 30.13 in 10.0 mi SSE 9.2 mph - N/A   Clear
10:55 PM 75.2 °F - 57.2 °F 53% 30.13 in 10.0 mi SSE 8.1 mph - N/A   Clear
11:15 PM 73.4 °F - 57.2 °F 57% 30.13 in 10.0 mi SSE 8.1 mph - N/A   Clear
11:35 PM 73.4 °F - 57.2 °F 57% 30.11 in 10.0 mi SSE 6.9 mph 12.7 mph N/A   Partly Cloudy
11:55 PM 73.4 °F - 57.2 °F 57% 30.11 in 10.0 mi Variable 4.6 mph - N/A   Mostly Cloudy